createdAt,value
2022-08-24T00:01:49.177Z,18.60
2022-08-24T00:04:16.189Z,18.60
2022-08-24T00:06:44.508Z,18.50
2022-08-24T00:09:12.583Z,18.60
2022-08-24T00:11:39.334Z,18.60
2022-08-24T00:14:06.099Z,18.50
2022-08-24T00:16:32.904Z,18.50
2022-08-24T00:18:59.661Z,18.50
2022-08-24T00:21:26.449Z,18.40
2022-08-24T00:23:53.282Z,18.40
2022-08-24T00:26:28.741Z,18.40
2022-08-24T00:28:56.143Z,18.40
2022-08-24T00:31:22.916Z,18.50
2022-08-24T00:33:49.726Z,18.40
2022-08-24T00:36:16.989Z,18.40
2022-08-24T00:38:43.881Z,18.40
2022-08-24T00:41:10.621Z,18.30
2022-08-24T00:43:38.687Z,18.30
2022-08-24T00:46:16.035Z,18.30
2022-08-24T00:48:47.520Z,18.20
2022-08-24T00:51:18.210Z,18.10
2022-08-24T00:53:48.973Z,18.10
2022-08-24T00:56:20.191Z,18.10
2022-08-24T00:58:57.085Z,18.20
2022-08-24T01:01:25.853Z,18.20
2022-08-24T01:03:56.833Z,18.20
2022-08-24T01:06:24.560Z,18.10
2022-08-24T01:08:56.379Z,18.10
2022-08-24T01:11:26.079Z,18.10
2022-08-24T01:13:55.172Z,18.20
2022-08-24T01:16:22.816Z,18.10
2022-08-24T01:18:49.577Z,18.10
2022-08-24T01:21:19.835Z,18.10
2022-08-24T01:23:50.637Z,18.00
2022-08-24T01:26:20.898Z,18.00
2022-08-24T01:28:50.330Z,18.00
2022-08-24T01:31:21.186Z,17.90
2022-08-24T01:33:50.200Z,17.90
2022-08-24T01:36:28.540Z,17.90
2022-08-24T01:38:59.924Z,17.80
2022-08-24T01:41:29.020Z,17.80
2022-08-24T01:43:56.685Z,17.80
2022-08-24T01:46:23.488Z,17.90
2022-08-24T01:48:50.273Z,17.80
2022-08-24T01:51:17.049Z,17.80
2022-08-24T01:53:43.787Z,17.70
2022-08-24T01:56:11.904Z,17.70
2022-08-24T01:58:43.937Z,17.70
2022-08-24T02:01:10.837Z,17.70
2022-08-24T02:03:37.625Z,17.70
2022-08-24T02:06:04.643Z,17.80
2022-08-24T02:08:31.456Z,17.80
2022-08-24T02:10:58.212Z,17.80
2022-08-24T02:13:26.572Z,17.70
2022-08-24T02:15:53.398Z,17.70
2022-08-24T02:18:20.223Z,17.70
2022-08-24T02:20:47.020Z,17.70
2022-08-24T02:23:13.900Z,17.60
2022-08-24T02:25:40.641Z,17.70
2022-08-24T02:28:07.379Z,17.60
2022-08-24T02:30:35.472Z,17.60
2022-08-24T02:33:02.661Z,17.50
2022-08-24T02:35:30.411Z,17.50
2022-08-24T02:37:57.674Z,17.60
2022-08-24T02:40:24.930Z,17.60
2022-08-24T02:42:51.729Z,17.50
2022-08-24T02:45:18.702Z,17.50
2022-08-24T02:47:46.798Z,17.40
2022-08-24T02:50:16.172Z,17.30
2022-08-24T02:52:43.566Z,17.40
2022-08-24T02:55:12.758Z,17.40
2022-08-24T02:57:39.627Z,17.40
2022-08-24T03:00:10.450Z,17.30
2022-08-24T03:02:37.637Z,17.30
2022-08-24T03:05:07.680Z,17.20
2022-08-24T03:07:34.529Z,17.30
2022-08-24T03:10:01.293Z,17.30
2022-08-24T03:12:28.079Z,17.30
2022-08-24T03:14:54.801Z,17.20
2022-08-24T03:17:21.650Z,17.30
2022-08-24T03:19:48.373Z,17.30
2022-08-24T03:22:16.653Z,17.20
2022-08-24T03:24:43.404Z,17.10
2022-08-24T03:27:13.140Z,17.20
2022-08-24T03:29:40.652Z,17.20
2022-08-24T03:32:07.411Z,17.10
2022-08-24T03:34:34.454Z,17.00
2022-08-24T03:37:01.437Z,17.00
2022-08-24T03:39:29.838Z,16.90
2022-08-24T03:41:56.743Z,17.10
2022-08-24T03:44:23.566Z,17.00
2022-08-24T03:46:50.435Z,17.10
2022-08-24T03:49:17.242Z,17.10
2022-08-24T03:51:44.170Z,17.20
2022-08-24T03:54:13.408Z,17.10
2022-08-24T03:56:41.830Z,17.00
2022-08-24T03:59:09.775Z,16.90
2022-08-24T04:01:36.598Z,17.00
2022-08-24T04:04:04.374Z,16.70
2022-08-24T04:06:31.180Z,16.90
2022-08-24T04:08:58.280Z,17.00
2022-08-24T04:11:27.298Z,17.00
2022-08-24T04:13:57.525Z,17.00
2022-08-24T04:16:25.527Z,16.90
2022-08-24T04:18:52.459Z,16.80
2022-08-24T04:21:21.548Z,16.80
2022-08-24T04:23:49.286Z,16.80
2022-08-24T04:26:26.888Z,16.90
2022-08-24T04:29:08.249Z,16.80
2022-08-24T04:31:36.058Z,16.80
2022-08-24T04:34:03.134Z,16.70
2022-08-24T04:36:29.906Z,16.80
2022-08-24T04:38:56.636Z,16.70
2022-08-24T04:41:28.975Z,16.70
2022-08-24T04:43:58.669Z,16.70
2022-08-24T04:46:28.476Z,16.60
2022-08-24T04:48:55.332Z,16.70
2022-08-24T04:51:22.707Z,16.70
2022-08-24T04:53:50.715Z,16.70
2022-08-24T04:56:20.162Z,16.70
2022-08-24T04:58:47.700Z,16.70
2022-08-24T05:01:16.933Z,16.60
2022-08-24T05:03:45.897Z,16.70
2022-08-24T05:06:13.582Z,16.70
2022-08-24T05:08:40.338Z,16.70
2022-08-24T05:11:07.214Z,16.60
2022-08-24T05:13:34.233Z,16.60
2022-08-24T05:16:01.301Z,16.60
2022-08-24T05:18:28.222Z,16.60
2022-08-24T05:20:56.601Z,16.60
2022-08-24T05:23:23.323Z,16.70
2022-08-24T05:25:50.095Z,16.70
2022-08-24T05:28:16.958Z,16.70
2022-08-24T05:30:44.045Z,16.70
2022-08-24T05:33:11.368Z,16.70
2022-08-24T05:35:38.760Z,16.70
2022-08-24T05:38:11.681Z,16.70
2022-08-24T05:40:38.418Z,16.80
2022-08-24T05:43:05.482Z,16.80
2022-08-24T05:45:32.544Z,16.80
2022-08-24T05:47:59.302Z,16.80
2022-08-24T05:50:26.367Z,16.90
2022-08-24T05:52:53.112Z,16.90
2022-08-24T05:55:21.187Z,16.90
2022-08-24T05:57:47.928Z,16.90
2022-08-24T06:00:15.306Z,17.00
2022-08-24T06:02:42.200Z,17.10
2022-08-24T06:05:09.721Z,17.10
2022-08-24T06:07:36.453Z,17.20
2022-08-24T06:10:32.809Z,17.20
2022-08-24T06:12:51.881Z,17.30
2022-08-24T06:15:18.935Z,17.30
2022-08-24T06:17:45.787Z,17.30
2022-08-24T06:20:13.380Z,17.50
2022-08-24T06:22:40.121Z,17.50
2022-08-24T06:25:07.653Z,17.60
2022-08-24T06:27:34.571Z,17.70
2022-08-24T06:30:05.930Z,17.70
2022-08-24T06:32:32.657Z,17.80
2022-08-24T06:34:59.509Z,17.80
2022-08-24T06:37:26.575Z,17.80
2022-08-24T06:39:57.296Z,17.90
2022-08-24T06:42:24.746Z,18.00
2022-08-24T06:44:51.904Z,18.20
2022-08-24T06:47:20.293Z,18.20
2022-08-24T06:49:47.055Z,18.30
2022-08-24T06:52:13.786Z,18.40
2022-08-24T06:54:40.602Z,18.40
2022-08-24T06:57:07.538Z,18.50
2022-08-24T06:59:34.471Z,18.60
2022-08-24T07:02:01.355Z,18.60
2022-08-24T07:04:29.622Z,18.60
2022-08-24T07:06:56.516Z,18.70
2022-08-24T07:09:23.393Z,18.70
2022-08-24T07:11:50.315Z,18.80
2022-08-24T07:14:17.231Z,18.80
2022-08-24T07:16:44.009Z,18.90
2022-08-24T07:19:10.740Z,18.90
2022-08-24T07:21:38.818Z,18.90
2022-08-24T07:24:06.255Z,19.00
2022-08-24T07:26:33.195Z,19.00
2022-08-24T07:29:02.254Z,19.10
2022-08-24T07:31:33.300Z,19.10
2022-08-24T07:34:02.547Z,19.20
2022-08-24T07:36:29.418Z,19.20
2022-08-24T07:38:57.731Z,19.20
2022-08-24T07:41:56.763Z,19.20
2022-08-24T07:44:13.509Z,19.30
2022-08-24T07:46:41.575Z,19.30
2022-08-24T07:49:29.491Z,19.30
2022-08-24T07:51:56.146Z,19.30
2022-08-24T07:54:24.401Z,19.40
2022-08-24T07:56:51.138Z,19.40
2022-08-24T07:59:18.226Z,19.40
2022-08-24T08:01:45.143Z,19.40
2022-08-24T08:04:12.206Z,19.50
2022-08-24T08:06:38.992Z,19.50
2022-08-24T08:09:06.178Z,19.50
2022-08-24T08:11:34.229Z,19.50
2022-08-24T08:14:00.940Z,19.50
2022-08-24T08:16:27.950Z,19.50
2022-08-24T08:19:11.061Z,19.60
2022-08-24T08:21:41.929Z,19.60
2022-08-24T08:24:08.690Z,19.70
2022-08-24T08:26:36.782Z,19.70
2022-08-24T08:29:03.635Z,19.70
2022-08-24T08:31:30.406Z,19.70
2022-08-24T08:34:01.032Z,19.80
2022-08-24T08:36:28.053Z,19.80
2022-08-24T08:38:54.935Z,19.80
2022-08-24T08:41:56.866Z,19.80
2022-08-24T08:44:46.614Z,19.90
2022-08-24T08:47:31.597Z,19.90
2022-08-24T08:50:08.254Z,20.00
2022-08-24T08:53:07.385Z,20.00
2022-08-24T08:55:40.642Z,20.00
2022-08-24T08:58:19.539Z,20.00
2022-08-24T09:00:55.084Z,20.10
2022-08-24T09:03:52.450Z,20.10
2022-08-24T09:06:39.613Z,20.10
2022-08-24T09:09:41.414Z,20.20
2022-08-24T09:12:18.552Z,20.20
2022-08-24T09:15:09.610Z,20.20
2022-08-24T09:17:49.353Z,20.30
2022-08-24T09:20:48.007Z,20.30
2022-08-24T09:23:23.545Z,20.30
2022-08-24T09:26:02.179Z,20.30
2022-08-24T09:28:43.832Z,20.30
2022-08-24T09:31:42.249Z,20.30
2022-08-24T09:34:18.559Z,20.30
2022-08-24T09:36:53.438Z,20.40
2022-08-24T09:39:37.018Z,20.40
2022-08-24T09:42:55.473Z,20.40
2022-08-24T09:45:58.914Z,20.50
2022-08-24T09:48:46.880Z,20.50
2022-08-24T09:51:41.725Z,20.50
2022-08-24T09:54:51.678Z,20.60
2022-08-24T09:57:50.464Z,20.60
2022-08-24T10:00:27.366Z,20.60
2022-08-24T10:03:01.606Z,20.70
2022-08-24T10:05:41.866Z,20.70
2022-08-24T10:08:19.422Z,20.70
2022-08-24T10:10:56.817Z,20.80
2022-08-24T10:13:32.738Z,20.80
2022-08-24T10:16:16.025Z,20.80
2022-08-24T10:18:54.530Z,20.80
2022-08-24T10:21:36.781Z,20.90
2022-08-24T10:24:36.437Z,20.90
2022-08-24T10:27:15.183Z,20.90
2022-08-24T10:30:26.724Z,21.00
2022-08-24T10:33:07.006Z,21.00
2022-08-24T10:35:38.521Z,21.00
2022-08-24T10:38:23.982Z,21.10
2022-08-24T10:41:10.250Z,21.10
2022-08-24T10:44:06.555Z,21.10
2022-08-24T10:46:48.040Z,21.00
2022-08-24T10:49:56.454Z,21.10
2022-08-24T10:52:57.829Z,21.10
2022-08-24T10:55:28.333Z,21.10
2022-08-24T10:58:30.205Z,21.10
2022-08-24T11:01:17.143Z,21.10
2022-08-24T11:03:50.924Z,21.10
2022-08-24T11:06:19.007Z,21.10
2022-08-24T11:08:54.404Z,21.10
2022-08-24T11:11:30.369Z,21.20
2022-08-24T11:13:59.485Z,21.20
2022-08-24T11:16:33.099Z,21.30
2022-08-24T11:19:02.104Z,21.30
2022-08-24T11:21:39.253Z,21.30
2022-08-24T11:24:10.401Z,21.30
2022-08-24T11:26:53.769Z,21.30
2022-08-24T11:29:26.090Z,21.40
2022-08-24T11:31:53.114Z,21.40
2022-08-24T11:34:30.909Z,21.50
2022-08-24T11:36:58.106Z,21.50
2022-08-24T11:39:30.151Z,21.50
2022-08-24T11:42:03.443Z,21.50
2022-08-24T11:44:39.488Z,21.50
2022-08-24T11:47:31.498Z,21.50
2022-08-24T11:50:06.636Z,21.50
2022-08-24T11:52:48.347Z,21.50
2022-08-24T11:55:24.282Z,21.50
2022-08-24T11:57:59.206Z,21.50
2022-08-24T12:00:36.345Z,21.50
2022-08-24T12:03:08.586Z,21.50
2022-08-24T12:05:48.093Z,21.60
2022-08-24T12:08:21.446Z,21.60
2022-08-24T12:10:56.562Z,21.60
2022-08-24T12:13:33.025Z,21.70
2022-08-24T12:16:08.578Z,21.70
2022-08-24T12:18:46.210Z,21.70
2022-08-24T12:21:14.945Z,21.80
2022-08-24T12:23:44.504Z,21.80
2022-08-24T12:26:16.825Z,21.80
2022-08-24T12:28:54.207Z,21.90
2022-08-24T12:31:25.494Z,21.90
2022-08-24T12:33:55.931Z,22.00
2022-08-24T12:36:28.403Z,22.00
2022-08-24T12:39:05.942Z,22.00
2022-08-24T12:41:34.918Z,22.00
2022-08-24T12:44:07.571Z,22.00
2022-08-24T12:46:34.988Z,22.00
2022-08-24T12:49:08.513Z,22.00
2022-08-24T12:51:52.200Z,22.10
2022-08-24T12:54:34.722Z,22.10
2022-08-24T12:57:29.595Z,22.20
2022-08-24T13:00:02.529Z,22.30
2022-08-24T13:02:35.488Z,22.30
2022-08-24T13:05:11.134Z,22.20
2022-08-24T13:07:44.780Z,22.20
2022-08-24T13:10:15.862Z,22.20
2022-08-24T13:13:15.560Z,22.20
2022-08-24T13:15:57.748Z,22.20
2022-08-24T13:19:06.698Z,22.20
2022-08-24T13:21:55.638Z,22.40
2022-08-24T13:24:58.935Z,22.40
2022-08-24T13:28:10.899Z,22.50
2022-08-24T13:31:09.938Z,22.50
2022-08-24T13:33:41.752Z,22.40
2022-08-24T13:36:47.981Z,22.40
2022-08-24T13:39:56.283Z,22.30
2022-08-24T13:42:46.437Z,22.40
2022-08-24T13:45:23.506Z,22.40
2022-08-24T13:48:00.849Z,22.40
2022-08-24T13:50:33.055Z,22.50
2022-08-24T13:53:16.326Z,22.40
2022-08-24T13:55:48.725Z,22.40
2022-08-24T13:58:39.598Z,22.40
2022-08-24T14:01:26.643Z,22.50
2022-08-24T14:04:17.155Z,22.60
2022-08-24T14:06:54.946Z,22.60
2022-08-24T14:09:37.593Z,22.90
2022-08-24T14:12:17.451Z,22.80
2022-08-24T14:14:57.162Z,22.70
2022-08-24T14:17:36.971Z,22.70
2022-08-24T14:20:10.890Z,22.70
2022-08-24T14:22:52.129Z,22.70
2022-08-24T14:25:21.718Z,22.70
2022-08-24T14:27:49.812Z,22.70
2022-08-24T14:30:45.860Z,22.70
2022-08-24T14:33:20.959Z,22.70
2022-08-24T14:36:12.163Z,22.70
2022-08-24T14:38:51.891Z,22.70
2022-08-24T14:41:30.358Z,22.80
2022-08-24T14:44:33.732Z,22.70
2022-08-24T14:47:06.610Z,22.70
2022-08-24T14:49:42.089Z,22.60
2022-08-24T14:52:30.901Z,22.70
2022-08-24T14:55:07.131Z,22.60
2022-08-24T14:57:49.876Z,22.60
2022-08-24T15:00:19.799Z,22.60
2022-08-24T15:03:12.148Z,22.70
2022-08-24T15:06:25.358Z,22.80
2022-08-24T15:08:48.946Z,22.70
2022-08-24T15:11:21.906Z,22.70
2022-08-24T15:13:53.764Z,22.60
2022-08-24T15:16:25.466Z,22.70
2022-08-24T15:19:00.267Z,22.60
2022-08-24T15:21:36.031Z,22.70
2022-08-24T15:24:13.520Z,22.70
2022-08-24T15:26:58.539Z,22.70
2022-08-24T15:29:28.576Z,22.70
2022-08-24T15:31:58.232Z,22.80
2022-08-24T15:34:42.844Z,22.80
2022-08-24T15:37:10.005Z,22.80
2022-08-24T15:39:38.091Z,22.90
2022-08-24T15:42:10.218Z,22.90
2022-08-24T15:44:37.352Z,22.90
2022-08-24T15:47:11.761Z,22.90
2022-08-24T15:49:48.171Z,23.00
2022-08-24T15:52:37.059Z,23.00
2022-08-24T15:55:07.969Z,23.00
2022-08-24T15:57:39.278Z,23.10
2022-08-24T16:00:09.175Z,23.10
2022-08-24T16:02:36.282Z,23.10
2022-08-24T16:05:15.644Z,23.10
2022-08-24T16:08:06.937Z,23.20
2022-08-24T16:10:39.831Z,23.20
2022-08-24T16:13:08.570Z,23.20
2022-08-24T16:15:44.590Z,23.10
2022-08-24T16:18:11.586Z,23.20
2022-08-24T16:20:38.820Z,23.20
2022-08-24T16:23:07.982Z,23.10
2022-08-24T16:25:42.777Z,23.10
2022-08-24T16:28:12.478Z,23.00
2022-08-24T16:30:44.142Z,23.10
2022-08-24T16:33:43.526Z,23.10
2022-08-24T16:36:13.662Z,23.10
2022-08-24T16:38:46.808Z,23.00
2022-08-24T16:41:18.482Z,23.00
2022-08-24T16:43:46.018Z,23.00
2022-08-24T16:46:18.309Z,23.00
2022-08-24T16:48:45.193Z,23.00
2022-08-24T16:51:12.765Z,23.00
2022-08-24T16:53:46.696Z,23.00
2022-08-24T16:56:16.885Z,23.00
2022-08-24T16:58:48.318Z,23.00
2022-08-24T17:01:16.791Z,23.00
2022-08-24T17:03:46.029Z,23.00
2022-08-24T17:06:16.203Z,22.90
2022-08-24T17:08:46.790Z,23.00
2022-08-24T17:11:16.050Z,23.00
2022-08-24T17:13:49.733Z,23.00
2022-08-24T17:16:26.439Z,22.90
2022-08-24T17:18:54.635Z,23.00
2022-08-24T17:21:24.865Z,23.00
2022-08-24T17:23:52.366Z,23.00
2022-08-24T17:26:33.314Z,22.90
2022-08-24T17:29:04.377Z,22.90
2022-08-24T17:31:33.769Z,23.00
2022-08-24T17:34:01.596Z,22.90
2022-08-24T17:36:32.439Z,22.90
2022-08-24T17:39:06.366Z,22.90
2022-08-24T17:41:34.544Z,22.90
2022-08-24T17:44:01.585Z,22.90
2022-08-24T17:46:28.827Z,22.90
2022-08-24T17:48:57.413Z,22.90
2022-08-24T17:51:24.634Z,22.90
2022-08-24T17:53:51.959Z,22.80
2022-08-24T17:56:19.187Z,22.80
2022-08-24T17:58:47.509Z,22.80
2022-08-24T18:01:14.480Z,22.80
2022-08-24T18:03:45.832Z,22.80
2022-08-24T18:06:12.814Z,22.80
2022-08-24T18:08:39.788Z,22.80
2022-08-24T18:11:06.739Z,22.80
2022-08-24T18:13:33.667Z,22.80
2022-08-24T18:16:02.065Z,22.80
2022-08-24T18:18:28.961Z,22.80
2022-08-24T18:20:55.825Z,22.70
2022-08-24T18:23:24.712Z,22.70
2022-08-24T18:25:52.704Z,22.70
2022-08-24T18:28:21.995Z,22.70
2022-08-24T18:30:50.693Z,22.60
2022-08-24T18:33:18.846Z,22.60
2022-08-24T18:35:45.588Z,22.60
2022-08-24T18:38:13.100Z,22.60
2022-08-24T18:40:40.854Z,22.60
2022-08-24T18:43:21.866Z,22.60
2022-08-24T18:45:48.695Z,22.60
2022-08-24T18:48:15.789Z,22.50
2022-08-24T18:50:43.969Z,22.50
2022-08-24T18:53:10.978Z,22.50
2022-08-24T18:55:37.762Z,22.50
2022-08-24T18:58:04.635Z,22.40
2022-08-24T19:00:31.791Z,22.40
2022-08-24T19:03:02.702Z,22.30
2022-08-24T19:05:29.574Z,22.30
2022-08-24T19:07:57.679Z,22.30
2022-08-24T19:10:26.779Z,22.30
2022-08-24T19:12:56.914Z,22.30
2022-08-24T19:15:31.958Z,22.30
2022-08-24T19:18:07.606Z,22.20
2022-08-24T19:20:35.097Z,22.20
2022-08-24T19:23:07.585Z,22.10
2022-08-24T19:25:36.208Z,22.10
2022-08-24T19:28:03.762Z,22.10
2022-08-24T19:30:30.813Z,22.10
2022-08-24T19:32:58.141Z,22.00
2022-08-24T19:35:25.364Z,22.00
2022-08-24T19:37:52.171Z,22.00
2022-08-24T19:40:20.412Z,22.00
2022-08-24T19:42:47.779Z,22.00
2022-08-24T19:45:16.342Z,22.00
2022-08-24T19:47:43.121Z,21.90
2022-08-24T19:50:10.934Z,21.90
2022-08-24T19:52:38.735Z,21.80
2022-08-24T19:55:07.115Z,21.80
2022-08-24T19:57:43.277Z,21.80
2022-08-24T20:00:26.983Z,21.80
2022-08-24T20:02:56.175Z,21.70
2022-08-24T20:05:24.796Z,21.70
2022-08-24T20:07:51.577Z,21.70
2022-08-24T20:10:21.050Z,21.70
2022-08-24T20:12:49.316Z,21.60
2022-08-24T20:15:16.366Z,21.70
2022-08-24T20:17:43.269Z,21.60
2022-08-24T20:20:12.103Z,21.60
2022-08-24T20:22:38.984Z,21.60
2022-08-24T20:25:06.758Z,21.60
2022-08-24T20:27:33.662Z,21.60
2022-08-24T20:30:02.928Z,21.50
2022-08-24T20:32:29.671Z,21.50
2022-08-24T20:34:56.536Z,21.50
2022-08-24T20:37:25.347Z,21.40
2022-08-24T20:39:53.119Z,21.40
2022-08-24T20:42:21.444Z,21.50
2022-08-24T20:44:48.622Z,21.40
2022-08-24T20:47:17.643Z,21.40
2022-08-24T20:49:44.426Z,21.40
2022-08-24T20:52:11.288Z,21.40
2022-08-24T20:54:39.848Z,21.30
2022-08-24T20:57:08.044Z,21.30
2022-08-24T20:59:34.832Z,21.30
2022-08-24T21:02:01.714Z,21.30
2022-08-24T21:04:29.829Z,21.20
2022-08-24T21:06:56.816Z,21.20
2022-08-24T21:09:24.019Z,21.20
2022-08-24T21:11:50.890Z,21.20
2022-08-24T21:14:17.698Z,21.20
2022-08-24T21:16:44.529Z,21.10
2022-08-24T21:19:13.400Z,21.10
2022-08-24T21:21:42.661Z,21.10
2022-08-24T21:24:09.805Z,21.10
2022-08-24T21:26:36.800Z,21.10
2022-08-24T21:29:05.262Z,21.10
2022-08-24T21:31:32.092Z,21.10
2022-08-24T21:33:58.835Z,21.00
2022-08-24T21:36:27.692Z,21.00
2022-08-24T21:38:55.883Z,21.00
2022-08-24T21:41:22.694Z,21.00
2022-08-24T21:43:49.594Z,20.90
2022-08-24T21:46:16.536Z,20.90
2022-08-24T21:48:43.329Z,20.90
2022-08-24T21:51:10.085Z,20.90
2022-08-24T21:53:36.873Z,20.90
2022-08-24T21:56:05.667Z,20.80
2022-08-24T21:58:32.421Z,20.80
2022-08-24T22:01:00.066Z,20.80
2022-08-24T22:03:27.107Z,20.80
2022-08-24T22:05:59.970Z,20.70
2022-08-24T22:08:27.936Z,20.70
2022-08-24T22:10:54.845Z,20.70
2022-08-24T22:13:22.910Z,20.70
2022-08-24T22:15:49.709Z,20.70
2022-08-24T22:18:16.499Z,20.70
2022-08-24T22:20:43.292Z,20.70
2022-08-24T22:23:10.017Z,20.70
2022-08-24T22:25:36.776Z,20.70
2022-08-24T22:28:04.105Z,20.70
2022-08-24T22:30:33.249Z,20.70
2022-08-24T22:33:00.126Z,20.60
2022-08-24T22:35:27.432Z,20.60
2022-08-24T22:37:54.182Z,20.60
2022-08-24T22:40:21.117Z,20.60
2022-08-24T22:42:47.875Z,20.60
2022-08-24T22:45:14.648Z,20.60
2022-08-24T22:47:42.798Z,20.60
2022-08-24T22:50:09.830Z,20.60
2022-08-24T22:52:36.715Z,20.60
2022-08-24T22:55:04.233Z,20.60
2022-08-24T22:57:31.074Z,20.50
2022-08-24T22:59:57.968Z,20.50
2022-08-24T23:02:24.769Z,20.50
2022-08-24T23:04:53.459Z,20.50
2022-08-24T23:07:20.784Z,20.40
2022-08-24T23:09:47.845Z,20.40
2022-08-24T23:12:22.467Z,20.40
2022-08-24T23:14:50.097Z,20.40
2022-08-24T23:17:17.594Z,20.40
2022-08-24T23:19:44.345Z,20.30
2022-08-24T23:22:15.125Z,20.30
2022-08-24T23:24:42.462Z,20.30
2022-08-24T23:27:10.591Z,20.20
2022-08-24T23:29:38.042Z,20.20
2022-08-24T23:32:05.505Z,20.20
2022-08-24T23:34:32.837Z,20.20
2022-08-24T23:36:59.631Z,20.20
2022-08-24T23:39:28.315Z,20.30
2022-08-24T23:41:55.322Z,20.20
2022-08-24T23:44:23.946Z,20.00
2022-08-24T23:46:50.691Z,20.00
2022-08-24T23:49:19.655Z,20.10
2022-08-24T23:51:47.137Z,20.00
2022-08-24T23:54:14.485Z,20.00
2022-08-24T23:56:45.075Z,20.10
2022-08-24T23:59:13.590Z,20.00
